Time;durP1;ratioP1;P1;durP2;ratioP2;P2;SDS_P1;SDS_P2;PMS_P1;PMS_P2;Temp;Humidity;BMP_temperature;BMP_pressure;BME280_temperature;BME280_humidity;BME280_pressure;Samples;Min_cycle;Max_cycle;Signal;HPM_P1;HPM_P2
2023/10/11 00:01:01;;;;;;;;;;;;;;;;;;6340279;28;19912;-89
2023/10/11 00:04:03;;;;;;;;;;;;;;;;;;6339884;28;20366;-90
2023/10/11 00:07:04;;;;;;;;;;;;;;;;;;6336338;28;19912;-90
2023/10/11 00:10:10;;;;;;;;;;;;;;;;;;6326541;28;20002;-90
2023/10/11 00:13:11;;;;;;;;;;;;;;;;;;6319932;28;19912;-90
2023/10/11 00:16:11;;;;;;;;;;;;;;;;;;6334290;28;19919;-90
2023/10/11 00:19:15;;;;;;;;;;;;;;;;;;6335623;28;19908;-91
2023/10/11 00:22:16;;;;;;;;;;;;;;;;;;6321823;28;20037;-91
2023/10/11 00:25:23;;;;;;;;;;;;;;;;;;6311063;28;19919;-91
2023/10/11 00:28:24;;;;;;;;;;;;;;;;;;6298083;28;19912;-91
2023/10/11 00:31:24;;;;;;;;;;;;;;;;;;6334241;28;19960;-91
2023/10/11 00:34:24;;;;;;;;;;;;;;;;;;6322284;28;19927;-91
2023/10/11 00:37:25;;;;;;;;;;;;;;;;;;6303605;28;19912;-90
2023/10/11 00:40:25;;;;;;;;;;;;;;;;;;6335140;28;19914;-92
2023/10/11 00:43:26;;;;;;;;;;;;;;;;;;6342238;28;19962;-91
2023/10/11 00:46:27;;;;;;;;;;;;;;;;;;6324384;28;19908;-91
2023/10/11 00:49:39;;;;;;;;;;;;;;;;;;6322960;28;20398;-83
2023/10/11 00:52:40;;;;;;;;;;;;;;;;;;6323383;28;19912;-84
2023/10/11 00:55:41;;;;;;;;;;;;;;;;;;6325311;28;20344;-83
2023/10/11 00:58:41;;;;;;;;;;;;;;;;;;6322701;28;20277;-83
2023/10/11 01:01:42;;;;;;;;;;;;;;;;;;6318349;28;19987;-83
2023/10/11 01:04:42;;;;;;;;;;;;;;;;;;6334466;28;20452;-84
2023/10/11 01:07:44;;;;;;;;;;;;;;;;;;6337871;28;19957;-92
2023/10/11 01:10:45;;;;;;;;;;;;;;;;;;6328648;28;20297;-92
2023/10/11 01:13:50;;;;;;;;;;;;;;;;;;6335068;28;20324;-92
2023/10/11 01:16:55;;;;;;;;;;;;;;;;;;6333379;28;19915;-92
2023/10/11 01:19:55;;;;;;;;;;;;;;;;;;6311584;28;19959;-92
2023/10/11 01:22:55;;;;;;;;;;;;;;;;;;6331979;28;19957;-91
2023/10/11 01:25:56;;;;;;;;;;;;;;;;;;6312316;27;20358;-91
2023/10/11 01:28:56;;;;;;;;;;;;;;;;;;6345123;28;20010;-92
2023/10/11 01:31:56;;;;;;;;;;;;;;;;;;6308997;28;19912;-91
2023/10/11 01:34:57;;;;;;;;;;;;;;;;;;6323900;28;19912;-91
2023/10/11 01:37:57;;;;;;;;;;;;;;;;;;6303290;28;19908;-91
2023/10/11 01:40:57;;;;;;;;;;;;;;;;;;6344234;28;20348;-91
2023/10/11 01:43:57;;;;;;;;;;;;;;;;;;6308497;28;19991;-92
2023/10/11 01:46:57;;;;;;;;;;;;;;;;;;6309476;28;19915;-91
2023/10/11 01:49:57;;;;;;;;;;;;;;;;;;6336560;28;19908;-91
2023/10/11 01:52:57;;;;;;;;;;;;;;;;;;6314480;27;19960;-91
2023/10/11 01:55:57;;;;;;;;;;;;;;;;;;6312784;28;19911;-91
2023/10/11 01:59:01;;;;;;;;;;;;;;;;;;6346602;28;19915;-83
2023/10/11 02:02:03;;;;;;;;;;;;;;;;;;6340190;27;20202;-83
2023/10/11 02:05:05;;;;;;;;;;;;;;;;;;6346502;28;19916;-83
2023/10/11 02:08:14;;;;;;;;;;;;;;;;;;6315321;28;19919;-81
2023/10/11 02:11:15;;;;;;;;;;;;;;;;;;6333296;28;19958;-83
2023/10/11 02:14:15;;;;;;;;;;;;;;;;;;6325716;28;20003;-83
2023/10/11 02:17:18;;;;;;;;;;;;;;;;;;6331100;28;19912;-83
2023/10/11 02:20:22;;;;;;;;;;;;;;;;;;6335374;28;19999;-83
2023/10/11 02:23:25;;;;;;;;;;;;;;;;;;6337849;28;19951;-83
2023/10/11 02:26:31;;;;;;;;;;;;;;;;;;6342958;27;20002;-82
2023/10/11 02:29:32;;;;;;;;;;;;;;;;;;6332388;28;20297;-83
2023/10/11 02:32:38;;;;;;;;;;;;;;;;;;6301386;28;19915;-83
2023/10/11 02:36:08;;;;;;;;;;;;;;;;;;6324821;28;20103;-82
2023/10/11 02:38:58;;;;;;;;;;;;;;;;;;6319497;28;20290;-82
2023/10/11 02:41:59;;;;;;;;;;;;;;;;;;6321925;28;19919;-83
2023/10/11 02:45:05;;;;;;;;;;;;;;;;;;6301005;28;19912;-83
2023/10/11 02:48:10;;;;;;;;;;;;;;;;;;6334261;28;19912;-83
2023/10/11 02:51:15;;;;;;;;;;;;;;;;;;6309834;28;19912;-83
2023/10/11 02:54:15;;;;;;;;;;;;;;;;;;6327743;27;19965;-83
2023/10/11 02:57:19;;;;;;;;;;;;;;;;;;6319343;28;19953;-83
2023/10/11 03:00:22;;;;;;;;;;;;;;;;;;6306735;28;19923;-82
2023/10/11 03:03:23;;;;;;;;;;;;;;;;;;6327681;27;19966;-82
2023/10/11 03:06:24;;;;;;;;;;;;;;;;;;6301245;28;20429;-90
2023/10/11 03:09:27;;;;;;;;;;;;;;;;;;6329314;28;19922;-83
2023/10/11 03:12:30;;;;;;;;;;;;;;;;;;6333652;28;19918;-82
2023/10/11 03:15:31;;;;;;;;;;;;;;;;;;6329965;28;19916;-83
2023/10/11 03:18:36;;;;;;;;;;;;;;;;;;6334751;28;19924;-82
2023/10/11 03:21:37;;;;;;;;;;;;;;;;;;6324596;28;20463;-83
2023/10/11 03:24:40;;;;;;;;;;;;;;;;;;6311108;28;19908;-83
2023/10/11 03:27:48;;;;;;;;;;;;;;;;;;6324152;27;19959;-91
2023/10/11 03:30:48;;;;;;;;;;;;;;;;;;6331683;28;19956;-91
2023/10/11 03:33:48;;;;;;;;;;;;;;;;;;6306730;28;19923;-91
2023/10/11 03:36:52;;;;;;;;;;;;;;;;;;6305793;28;19915;-91
2023/10/11 03:39:56;;;;;;;;;;;;;;;;;;6338020;28;19916;-91
2023/10/11 03:43:03;;;;;;;;;;;;;;;;;;6304394;28;19908;-91
2023/10/11 03:46:04;;;;;;;;;;;;;;;;;;6330321;28;19953;-91
2023/10/11 03:50:06;;;;;;;;;;;;;;;;;;6314778;28;20414;-91
2023/10/11 03:52:35;;;;;;;;;;;;;;;;;;6318447;28;20321;-91
2023/10/11 03:55:44;;;;;;;;;;;;;;;;;;6326706;28;20382;-91
2023/10/11 03:58:45;;;;;;;;;;;;;;;;;;6325354;28;19932;-91
2023/10/11 04:01:45;;;;;;;;;;;;;;;;;;6345769;28;19919;-91
2023/10/11 04:04:49;;;;;;;;;;;;;;;;;;6323064;28;20275;-90
2023/10/11 04:07:49;;;;;;;;;;;;;;;;;;6311356;28;19908;-91
2023/10/11 04:10:50;;;;;;;;;;;;;;;;;;6303491;28;19964;-91
2023/10/11 04:13:50;;;;;;;;;;;;;;;;;;6332974;28;19915;-91
2023/10/11 04:16:53;;;;;;;;;;;;;;;;;;6318819;28;20369;-91
2023/10/11 04:19:53;;;;;;;;;;;;;;;;;;6315880;28;19912;-91
2023/10/11 04:23:01;;;;;;;;;;;;;;;;;;6335251;28;20275;-91
2023/10/11 04:26:07;;;;;;;;;;;;;;;;;;6333606;28;19912;-91
2023/10/11 04:29:17;;;;;;;;;;;;;;;;;;6326614;28;19915;-90
2023/10/11 04:32:41;;;;;;;;;;;;;;;;;;6317924;28;19919;-91
2023/10/11 04:35:42;;;;;;;;;;;;;;;;;;6321480;28;20451;-91
2023/10/11 04:38:47;;;;;;;;;;;;;;;;;;6326216;28;19919;-91
2023/10/11 04:41:51;;;;;;;;;;;;;;;;;;6342168;28;19926;-91
2023/10/11 04:44:54;;;;;;;;;;;;;;;;;;6338319;28;19976;-90
2023/10/11 04:47:56;;;;;;;;;;;;;;;;;;6331452;28;19931;-91
2023/10/11 04:51:04;;;;;;;;;;;;;;;;;;6329490;28;19912;-91
2023/10/11 04:54:13;;;;;;;;;;;;;;;;;;6319484;27;20047;-91
2023/10/11 04:57:23;;;;;;;;;;;;;;;;;;6324551;27;20439;-91
2023/10/11 05:00:30;;;;;;;;;;;;;;;;;;6335669;27;19931;-91
2023/10/11 05:03:37;;;;;;;;;;;;;;;;;;6328616;28;19915;-91
2023/10/11 05:06:40;;;;;;;;;;;;;;;;;;6307163;28;19919;-91
2023/10/11 05:09:41;;;;;;;;;;;;;;;;;;6306664;28;19948;-91
2023/10/11 05:12:44;;;;;;;;;;;;;;;;;;6318761;28;20275;-90
2023/10/11 05:15:47;;;;;;;;;;;;;;;;;;6307527;28;20024;-91
2023/10/11 05:18:47;;;;;;;;;;;;;;;;;;6308631;28;19969;-91
2023/10/11 05:21:52;;;;;;;;;;;;;;;;;;6323979;28;19912;-91
2023/10/11 05:28:08;;;;;;;;;;;;;;;;;;6335148;28;19918;-91
2023/10/11 05:34:45;;;;;;;;;;;;;;;;;;6341832;28;20437;-90
2023/10/11 05:51:03;;;;;;;;;;;;;;;;;;6336377;28;19908;-90
2023/10/11 05:54:04;;;;;;;;;;;;;;;;;;6313341;28;19919;-91
2023/10/11 05:57:04;;;;;;;;;;;;;;;;;;6333852;28;19975;-89
2023/10/11 06:00:17;;;;;;;;;;;;;;;;;;6309978;28;19963;-91
2023/10/11 06:03:18;;;;;;;;;;;;;;;;;;6330943;27;19912;-90
2023/10/11 06:06:32;;;;;;;;;;;;;;;;;;6342095;28;19915;-91
2023/10/11 06:09:39;;;;;;;;;;;;;;;;;;6311281;28;19911;-90
2023/10/11 06:12:39;;;;;;;;;;;;;;;;;;6312458;28;19973;-90
2023/10/11 06:15:41;;;;;;;;;;;;;;;;;;6300010;28;19912;-90
2023/10/11 06:18:55;;;;;;;;;;;;;;;;;;6318690;28;20382;-90
2023/10/11 06:21:58;;;;;;;;;;;;;;;;;;6329724;28;19999;-90
2023/10/11 06:24:59;;;;;;;;;;;;;;;;;;6311845;27;19914;-90
2023/10/11 06:31:00;;;;;;;;;;;;;;;;;;6341465;28;19912;-90
2023/10/11 06:34:03;;;;;;;;;;;;;;;;;;6315428;28;19916;-91
2023/10/11 06:37:06;;;;;;;;;;;;;;;;;;6323032;27;19916;-83
2023/10/11 06:40:13;;;;;;;;;;;;;;;;;;6326354;28;20282;-82
2023/10/11 06:43:13;;;;;;;;;;;;;;;;;;6328213;28;19939;-84
2023/10/11 06:46:13;;;;;;;;;;;;;;;;;;6313967;28;19918;-83
2023/10/11 06:49:14;;;;;;;;;;;;;;;;;;6334727;28;20431;-83
2023/10/11 06:52:25;;;;;;;;;;;;;;;;;;6314112;27;20361;-83
2023/10/11 06:55:25;;;;;;;;;;;;;;;;;;6328357;27;19922;-83
2023/10/11 06:58:25;;;;;;;;;;;;;;;;;;6334586;28;19943;-90
2023/10/11 07:01:30;;;;;;;;;;;;;;;;;;6316636;27;19915;-92
2023/10/11 07:04:36;;;;;;;;;;;;;;;;;;6318973;28;19943;-90
2023/10/11 07:07:36;;;;;;;;;;;;;;;;;;6330122;28;19924;-90
2023/10/11 07:10:36;;;;;;;;;;;;;;;;;;6304108;28;19916;-90
2023/10/11 07:13:57;;;;;;;;;;;;;;;;;;6337018;28;20369;-91
2023/10/11 07:17:00;;;;;;;;;;;;;;;;;;6327093;28;19916;-91
2023/10/11 07:20:44;;;;;;;;;;;;;;;;;;6328631;27;20011;-91
2023/10/11 07:23:24;;;;;;;;;;;;;;;;;;6338569;28;19912;-91
2023/10/11 07:26:48;;;;;;;;;;;;;;;;;;6323668;27;19951;-91
2023/10/11 07:29:47;;;;;;;;;;;;;;;;;;6328174;28;19920;-91
2023/10/11 07:32:47;;;;;;;;;;;;;;;;;;6317688;28;19951;-91
2023/10/11 07:35:48;;;;;;;;;;;;;;;;;;6338909;28;19924;-90
2023/10/11 07:38:54;;;;;;;;;;;;;;;;;;6321855;28;19964;-91
2023/10/11 07:42:06;;;;;;;;;;;;;;;;;;6333229;28;19920;-91
2023/10/11 07:45:13;;;;;;;;;;;;;;;;;;6332795;28;19912;-91
2023/10/11 07:48:14;;;;;;;;;;;;;;;;;;6309455;28;19919;-91
2023/10/11 07:51:14;;;;;;;;;;;;;;;;;;6316656;28;19919;-91
2023/10/11 07:54:20;;;;;;;;;;;;;;;;;;6306847;28;20007;-91
2023/10/11 07:57:21;;;;;;;;;;;;;;;;;;6315030;28;19912;-91
2023/10/11 08:00:21;;;;;;;;;;;;;;;;;;6310557;28;20438;-91
2023/10/11 08:03:21;;;;;;;;;;;;;;;;;;6339459;28;19912;-91
2023/10/11 08:06:24;;;;;;;;;;;;;;;;;;6309845;28;19912;-84
2023/10/11 08:09:25;;;;;;;;;;;;;;;;;;6328878;28;19908;-90
2023/10/11 08:12:27;;;;;;;;;;;;;;;;;;6315197;28;20316;-89
2023/10/11 08:15:27;;;;;;;;;;;;;;;;;;6322083;28;20584;-90
2023/10/11 08:18:27;;;;;;;;;;;;;;;;;;6337839;27;19916;-91
2023/10/11 08:21:30;;;;;;;;;;;;;;;;;;6335204;28;19912;-92
2023/10/11 08:24:40;;;;;;;;;;;;;;;;;;6338318;28;19916;-91
2023/10/11 08:27:41;;;;;;;;;;;;;;;;;;6325014;27;19923;-91
2023/10/11 08:30:45;;;;;;;;;;;;;;;;;;6343064;28;20323;-91
2023/10/11 08:33:45;;;;;;;;;;;;;;;;;;6325518;28;19912;-92
2023/10/11 08:36:45;;;;;;;;;;;;;;;;;;6340301;28;19912;-92
2023/10/11 08:39:46;;;;;;;;;;;;;;;;;;6331751;28;19912;-91
2023/10/11 08:42:48;;;;;;;;;;;;;;;;;;6316383;28;19947;-92
2023/10/11 08:45:48;;;;;;;;;;;;;;;;;;6324573;28;19912;-92
2023/10/11 08:48:50;;;;;;;;;;;;;;;;;;6304856;28;19912;-93
2023/10/11 08:51:50;;;;;;;;;;;;;;;;;;6321909;28;20262;-91
2023/10/11 08:54:50;;;;;;;;;;;;;;;;;;6333867;27;20006;-90
2023/10/11 08:57:50;;;;;;;;;;;;;;;;;;6314550;28;19927;-92
2023/10/11 09:00:52;;;;;;;;;;;;;;;;;;6337531;27;19911;-91
2023/10/11 09:03:52;;;;;;;;;;;;;;;;;;6330653;27;19912;-92
2023/10/11 09:06:57;;;;;;;;;;;;;;;;;;6316030;28;19919;-91
2023/10/11 09:10:00;;;;;;;;;;;;;;;;;;6335289;28;20457;-90
2023/10/11 09:13:02;;;;;;;;;;;;;;;;;;6317431;28;19918;-90
2023/10/11 09:16:08;;;;;;;;;;;;;;;;;;6319113;28;19920;-91
2023/10/11 09:19:11;;;;;;;;;;;;;;;;;;6344020;28;19916;-91
2023/10/11 09:22:21;;;;;;;;;;;;;;;;;;6320509;28;19908;-91
2023/10/11 09:25:22;;;;;;;;;;;;;;;;;;6308368;27;20457;-91
2023/10/11 09:28:22;;;;;;;;;;;;;;;;;;6309015;28;19919;-92
2023/10/11 09:31:23;;;;;;;;;;;;;;;;;;6317927;28;19962;-91
2023/10/11 09:34:23;;;;;;;;;;;;;;;;;;6334369;27;19919;-92
2023/10/11 09:37:23;;;;;;;;;;;;;;;;;;6314011;28;20679;-92
2023/10/11 09:40:26;;;;;;;;;;;;;;;;;;6333347;28;19916;-93
2023/10/11 09:43:27;;;;;;;;;;;;;;;;;;6331063;28;19914;-93
2023/10/11 09:46:30;;;;;;;;;;;;;;;;;;6330950;28;19957;-93
2023/10/11 09:49:30;;;;;;;;;;;;;;;;;;6312673;28;20074;-93
2023/10/11 09:52:31;;;;;;;;;;;;;;;;;;6338919;27;19926;-93
2023/10/11 09:55:31;;;;;;;;;;;;;;;;;;6330630;28;19919;-93
2023/10/11 09:58:31;;;;;;;;;;;;;;;;;;6323733;28;19974;-93
2023/10/11 10:01:32;;;;;;;;;;;;;;;;;;6323792;27;19912;-93
2023/10/11 10:04:38;;;;;;;;;;;;;;;;;;6320606;28;19912;-93
2023/10/11 10:07:44;;;;;;;;;;;;;;;;;;6339999;28;20622;-84
2023/10/11 10:10:44;;;;;;;;;;;;;;;;;;6326536;28;20451;-85
2023/10/11 10:13:44;;;;;;;;;;;;;;;;;;6334121;28;20490;-84
2023/10/11 10:16:49;;;;;;;;;;;;;;;;;;6317956;28;20297;-84
2023/10/11 10:19:49;;;;;;;;;;;;;;;;;;6334882;28;19912;-84
2023/10/11 10:22:49;;;;;;;;;;;;;;;;;;6342651;28;19998;-85
2023/10/11 10:25:50;;;;;;;;;;;;;;;;;;6306729;27;20327;-85
2023/10/11 10:28:57;;;;;;;;;;;;;;;;;;6329988;28;20354;-84
2023/10/11 10:31:57;;;;;;;;;;;;;;;;;;6303505;28;19918;-85
2023/10/11 10:34:58;;;;;;;;;;;;;;;;;;6336024;28;19911;-85
2023/10/11 10:37:59;;;;;;;;;;;;;;;;;;6330661;28;19912;-84
2023/10/11 10:40:59;;;;;;;;;;;;;;;;;;6331439;28;19911;-84
2023/10/11 10:43:59;;;;;;;;;;;;;;;;;;6333397;28;19919;-83
2023/10/11 10:47:00;;;;;;;;;;;;;;;;;;6322020;28;20338;-85
2023/10/11 10:50:08;;;;;;;;;;;;;;;;;;6324361;28;19908;-84
2023/10/11 10:53:09;;;;;;;;;;;;;;;;;;6331983;27;19912;-83
2023/10/11 10:56:09;;;;;;;;;;;;;;;;;;6331696;27;19923;-84
2023/10/11 10:59:12;;;;;;;;;;;;;;;;;;6300770;28;19923;-85
2023/10/11 11:02:12;;;;;;;;;;;;;;;;;;6339984;27;19908;-84
2023/10/11 11:05:15;;;;;;;;;;;;;;;;;;6331062;28;20353;-84
2023/10/11 11:08:18;;;;;;;;;;;;;;;;;;6329194;28;19915;-84
2023/10/11 11:11:28;;;;;;;;;;;;;;;;;;6337249;28;19912;-85
2023/10/11 11:14:28;;;;;;;;;;;;;;;;;;6308799;28;19912;-84
2023/10/11 11:17:28;;;;;;;;;;;;;;;;;;6326525;28;19954;-84
2023/10/11 11:20:28;;;;;;;;;;;;;;;;;;6323668;28;20323;-84
2023/10/11 11:23:31;;;;;;;;;;;;;;;;;;6309718;28;19998;-84
2023/10/11 11:26:33;;;;;;;;;;;;;;;;;;6329291;28;19923;-84
2023/10/11 11:29:33;;;;;;;;;;;;;;;;;;6329905;28;19908;-84
2023/10/11 11:32:45;;;;;;;;;;;;;;;;;;6330660;28;19972;-85
2023/10/11 11:35:54;;;;;;;;;;;;;;;;;;6311342;28;20283;-84
2023/10/11 11:38:54;;;;;;;;;;;;;;;;;;6325612;28;19914;-84
2023/10/11 11:41:55;;;;;;;;;;;;;;;;;;6338072;28;19916;-83
2023/10/11 11:44:55;;;;;;;;;;;;;;;;;;6324466;28;19968;-85
2023/10/11 11:47:56;;;;;;;;;;;;;;;;;;6305543;28;20378;-84
2023/10/11 11:50:57;;;;;;;;;;;;;;;;;;6302434;28;19944;-84
2023/10/11 11:53:57;;;;;;;;;;;;;;;;;;6320409;28;19951;-84
2023/10/11 11:56:57;;;;;;;;;;;;;;;;;;6317444;28;19908;-84
2023/10/11 11:59:57;;;;;;;;;;;;;;;;;;6319957;28;19926;-85
2023/10/11 12:02:58;;;;;;;;;;;;;;;;;;6333422;28;20366;-84
2023/10/11 12:05:58;;;;;;;;;;;;;;;;;;6308676;28;19939;-85
2023/10/11 12:08:58;;;;;;;;;;;;;;;;;;6302542;28;19912;-84
2023/10/11 12:12:03;;;;;;;;;;;;;;;;;;6302111;28;19916;-84
2023/10/11 12:15:03;;;;;;;;;;;;;;;;;;6324807;28;19951;-84
2023/10/11 12:18:09;;;;;;;;;;;;;;;;;;6321009;28;20373;-84
2023/10/11 12:21:15;;;;;;;;;;;;;;;;;;6325814;28;19916;-84
2023/10/11 12:24:15;;;;;;;;;;;;;;;;;;6336682;28;19920;-84
2023/10/11 12:27:16;;;;;;;;;;;;;;;;;;6320282;28;19916;-84
2023/10/11 12:30:22;;;;;;;;;;;;;;;;;;6331149;28;19959;-84
2023/10/11 12:33:22;;;;;;;;;;;;;;;;;;6322630;28;19919;-84
2023/10/11 12:36:27;;;;;;;;;;;;;;;;;;6332970;28;19948;-84
2023/10/11 12:39:33;;;;;;;;;;;;;;;;;;6314117;28;20365;-84
2023/10/11 12:42:33;;;;;;;;;;;;;;;;;;6329682;28;19916;-84
2023/10/11 12:45:34;;;;;;;;;;;;;;;;;;6313244;28;19931;-83
2023/10/11 12:48:37;;;;;;;;;;;;;;;;;;6317834;28;19984;-92
2023/10/11 12:51:37;;;;;;;;;;;;;;;;;;6315679;28;19932;-93
2023/10/11 12:54:41;;;;;;;;;;;;;;;;;;6334417;28;19920;-92
2023/10/11 12:57:44;;;;;;;;;;;;;;;;;;6335976;28;19980;-93
2023/10/11 13:01:05;;;;;;;;;;;;;;;;;;6313725;28;19912;-91
2023/10/11 13:04:17;;;;;;;;;;;;;;;;;;6327653;28;19923;-92
2023/10/11 13:07:17;;;;;;;;;;;;;;;;;;6347754;28;20006;-90
2023/10/11 13:10:17;;;;;;;;;;;;;;;;;;6323241;28;19918;-91
2023/10/11 13:13:18;;;;;;;;;;;;;;;;;;6335303;28;19916;-90
2023/10/11 13:16:26;;;;;;;;;;;;;;;;;;6310627;28;20033;-91
2023/10/11 13:19:26;;;;;;;;;;;;;;;;;;6332363;27;19919;-91
2023/10/11 13:22:31;;;;;;;;;;;;;;;;;;6322757;28;19912;-92
2023/10/11 13:25:31;;;;;;;;;;;;;;;;;;6340899;28;20002;-91
2023/10/11 13:28:33;;;;;;;;;;;;;;;;;;6334705;28;19912;-91
2023/10/11 13:31:33;;;;;;;;;;;;;;;;;;6334390;28;19961;-91
2023/10/11 13:34:33;;;;;;;;;;;;;;;;;;6357497;28;19917;-91
2023/10/11 13:37:33;;;;;;;;;;;;;;;;;;6342305;28;19908;-91
2023/10/11 13:40:33;;;;;;;;;;;;;;;;;;6362456;28;19962;-92
2023/10/11 13:43:37;;;;;;;;;;;;;;;;;;6338500;28;20354;-91
2023/10/11 13:46:37;;;;;;;;;;;;;;;;;;6330146;28;19915;-91
2023/10/11 13:49:39;;;;;;;;;;;;;;;;;;6347604;28;19912;-92
2023/10/11 13:52:39;;;;;;;;;;;;;;;;;;6341190;28;19923;-91
2023/10/11 13:55:40;;;;;;;;;;;;;;;;;;6323898;28;20268;-92
2023/10/11 13:58:45;;;;;;;;;;;;;;;;;;6326055;27;20382;-85
2023/10/11 14:02:16;;;;;;;;;;;;;;;;;;6317454;28;20039;-85
2023/10/11 14:05:18;;;;;;;;;;;;;;;;;;6327730;28;20003;-85
2023/10/11 14:08:38;;;;;;;;;;;;;;;;;;6336738;27;19994;-85
2023/10/11 14:11:39;;;;;;;;;;;;;;;;;;6326868;27;19915;-86
2023/10/11 14:14:39;;;;;;;;;;;;;;;;;;6322784;27;19980;-84
2023/10/11 14:17:40;;;;;;;;;;;;;;;;;;6338408;27;20002;-86
2023/10/11 14:20:45;;;;;;;;;;;;;;;;;;6334119;28;19916;-84
2023/10/11 14:23:45;;;;;;;;;;;;;;;;;;6325989;28;20046;-84
2023/10/11 14:26:46;;;;;;;;;;;;;;;;;;6324589;28;19966;-86
2023/10/11 14:29:46;;;;;;;;;;;;;;;;;;6328195;28;20430;-85
2023/10/11 14:32:47;;;;;;;;;;;;;;;;;;6322604;28;20346;-85
2023/10/11 14:35:47;;;;;;;;;;;;;;;;;;6321455;28;20401;-85
2023/10/11 14:38:47;;;;;;;;;;;;;;;;;;6306360;28;19916;-85
2023/10/11 14:41:50;;;;;;;;;;;;;;;;;;6313077;28;20425;-85
2023/10/11 14:44:50;;;;;;;;;;;;;;;;;;6324376;28;19912;-85
2023/10/11 14:47:50;;;;;;;;;;;;;;;;;;6330398;28;20003;-86
2023/10/11 14:50:54;;;;;;;;;;;;;;;;;;6336369;28;19915;-85
2023/10/11 14:53:54;;;;;;;;;;;;;;;;;;6332504;28;19915;-85
2023/10/11 14:56:56;;;;;;;;;;;;;;;;;;6328668;28;20381;-85
2023/10/11 14:59:57;;;;;;;;;;;;;;;;;;6311137;28;19920;-86
2023/10/11 15:02:57;;;;;;;;;;;;;;;;;;6332025;27;19908;-85
2023/10/11 15:05:59;;;;;;;;;;;;;;;;;;6319039;28;19908;-86
2023/10/11 15:08:59;;;;;;;;;;;;;;;;;;6314132;28;19931;-92
2023/10/11 15:12:02;;;;;;;;;;;;;;;;;;6330455;27;19909;-92
2023/10/11 15:15:03;;;;;;;;;;;;;;;;;;6303993;28;19940;-92
2023/10/11 15:18:03;;;;;;;;;;;;;;;;;;6333517;28;19926;-92
2023/10/11 15:21:04;;;;;;;;;;;;;;;;;;6320382;28;20374;-92
2023/10/11 15:24:07;;;;;;;;;;;;;;;;;;6332000;28;19960;-93
2023/10/11 15:27:07;;;;;;;;;;;;;;;;;;6348366;27;19911;-92
2023/10/11 15:30:07;;;;;;;;;;;;;;;;;;6342822;28;19911;-92
2023/10/11 15:33:07;;;;;;;;;;;;;;;;;;6327459;28;19912;-92
2023/10/11 15:36:08;;;;;;;;;;;;;;;;;;6308095;28;20205;-92
2023/10/11 15:39:10;;;;;;;;;;;;;;;;;;6326261;28;19912;-93
2023/10/11 15:42:10;;;;;;;;;;;;;;;;;;6342979;28;19949;-92
2023/10/11 15:45:13;;;;;;;;;;;;;;;;;;6333729;28;20114;-92
2023/10/11 15:48:15;;;;;;;;;;;;;;;;;;6325271;28;20029;-92
2023/10/11 15:51:19;;;;;;;;;;;;;;;;;;6317751;28;19924;-92
2023/10/11 15:54:22;;;;;;;;;;;;;;;;;;6322679;28;19967;-92
2023/10/11 15:57:22;;;;;;;;;;;;;;;;;;6323595;28;19916;-92
2023/10/11 16:00:22;;;;;;;;;;;;;;;;;;6306913;28;19957;-92
2023/10/11 16:03:24;;;;;;;;;;;;;;;;;;6320212;28;19919;-92
2023/10/11 16:06:25;;;;;;;;;;;;;;;;;;6310723;28;19908;-92
2023/10/11 16:09:26;;;;;;;;;;;;;;;;;;6331029;28;19916;-92
2023/10/11 16:12:27;;;;;;;;;;;;;;;;;;6334954;28;20376;-92
2023/10/11 16:15:27;;;;;;;;;;;;;;;;;;6320779;28;20478;-92
2023/10/11 16:18:27;;;;;;;;;;;;;;;;;;6319102;28;19912;-85
2023/10/11 16:21:27;;;;;;;;;;;;;;;;;;6311407;28;19931;-84
2023/10/11 16:24:28;;;;;;;;;;;;;;;;;;6325829;28;19958;-83
2023/10/11 16:27:28;;;;;;;;;;;;;;;;;;6336444;28;20332;-84
2023/10/11 16:30:28;;;;;;;;;;;;;;;;;;6298907;28;19916;-84
2023/10/11 16:33:31;;;;;;;;;;;;;;;;;;6304420;28;19916;-84
2023/10/11 16:36:31;;;;;;;;;;;;;;;;;;6309847;27;19923;-86
2023/10/11 16:39:31;;;;;;;;;;;;;;;;;;6313708;27;20460;-84
2023/10/11 16:42:34;;;;;;;;;;;;;;;;;;6325472;27;20058;-85
2023/10/11 16:45:37;;;;;;;;;;;;;;;;;;6307854;28;20368;-85
2023/10/11 16:48:38;;;;;;;;;;;;;;;;;;6335864;28;20002;-86
2023/10/11 16:51:39;;;;;;;;;;;;;;;;;;6334910;28;20025;-85
2023/10/11 16:54:39;;;;;;;;;;;;;;;;;;6342075;27;20377;-86
2023/10/11 16:57:39;;;;;;;;;;;;;;;;;;6321181;28;19924;-85
2023/10/11 17:00:42;;;;;;;;;;;;;;;;;;6337895;28;19912;-85
2023/10/11 17:03:42;;;;;;;;;;;;;;;;;;6330374;27;19920;-85
2023/10/11 17:06:42;;;;;;;;;;;;;;;;;;6317056;28;19999;-85
2023/10/11 17:09:43;;;;;;;;;;;;;;;;;;6332774;27;20386;-85
2023/10/11 17:12:43;;;;;;;;;;;;;;;;;;6345765;27;19919;-85
2023/10/11 17:15:43;;;;;;;;;;;;;;;;;;6314564;28;20302;-85
2023/10/11 17:18:46;;;;;;;;;;;;;;;;;;6328054;28;19926;-85
2023/10/11 17:21:47;;;;;;;;;;;;;;;;;;6328255;28;19911;-85
2023/10/11 17:24:48;;;;;;;;;;;;;;;;;;6316574;27;19911;-85
2023/10/11 17:27:48;;;;;;;;;;;;;;;;;;6322950;27;19928;-91
2023/10/11 17:30:48;;;;;;;;;;;;;;;;;;6336109;28;19912;-91
2023/10/11 17:33:48;;;;;;;;;;;;;;;;;;6339185;27;19912;-91
2023/10/11 17:36:49;;;;;;;;;;;;;;;;;;6339765;28;20280;-91
2023/10/11 17:39:49;;;;;;;;;;;;;;;;;;6323044;28;19923;-92
2023/10/11 17:42:49;;;;;;;;;;;;;;;;;;6312173;28;20247;-91
2023/10/11 17:45:49;;;;;;;;;;;;;;;;;;6300687;27;19916;-91
2023/10/11 17:48:50;;;;;;;;;;;;;;;;;;6309261;27;19915;-91
2023/10/11 17:51:51;;;;;;;;;;;;;;;;;;6334511;28;19931;-91
2023/10/11 17:54:54;;;;;;;;;;;;;;;;;;6334027;27;19967;-91
2023/10/11 17:57:56;;;;;;;;;;;;;;;;;;6335166;28;19930;-91
2023/10/11 18:00:57;;;;;;;;;;;;;;;;;;6342262;27;19969;-91
2023/10/11 18:04:05;;;;;;;;;;;;;;;;;;6325156;28;19919;-91
2023/10/11 18:07:05;;;;;;;;;;;;;;;;;;6311550;28;19958;-92
2023/10/11 18:10:05;;;;;;;;;;;;;;;;;;6335218;27;19908;-92
2023/10/11 18:13:06;;;;;;;;;;;;;;;;;;6329402;27;19920;-91
2023/10/11 18:16:07;;;;;;;;;;;;;;;;;;6311607;28;20407;-92
2023/10/11 18:19:10;;;;;;;;;;;;;;;;;;6332535;28;19916;-85
2023/10/11 18:22:10;;;;;;;;;;;;;;;;;;6325037;28;20320;-84
2023/10/11 18:25:10;;;;;;;;;;;;;;;;;;6324427;27;19916;-85
2023/10/11 18:28:10;;;;;;;;;;;;;;;;;;6301651;28;19961;-85
2023/10/11 18:31:11;;;;;;;;;;;;;;;;;;6306220;28;20551;-86
2023/10/11 18:34:11;;;;;;;;;;;;;;;;;;6332263;28;19926;-85
2023/10/11 18:37:12;;;;;;;;;;;;;;;;;;6332958;28;19919;-90
2023/10/11 18:40:19;;;;;;;;;;;;;;;;;;6321693;28;19916;-90
2023/10/11 18:43:20;;;;;;;;;;;;;;;;;;6301487;28;20005;-90
2023/10/11 18:46:21;;;;;;;;;;;;;;;;;;6330474;28;19909;-90
2023/10/11 18:49:22;;;;;;;;;;;;;;;;;;6315165;28;20003;-90
2023/10/11 18:52:22;;;;;;;;;;;;;;;;;;6321329;27;19916;-90
2023/10/11 18:55:26;;;;;;;;;;;;;;;;;;6328722;28;19916;-91
2023/10/11 18:58:26;;;;;;;;;;;;;;;;;;6314817;28;19924;-91
2023/10/11 19:01:26;;;;;;;;;;;;;;;;;;6340518;27;19942;-90
2023/10/11 19:04:26;;;;;;;;;;;;;;;;;;6335344;28;19912;-90
2023/10/11 19:07:27;;;;;;;;;;;;;;;;;;6313564;28;19912;-91
2023/10/11 19:10:29;;;;;;;;;;;;;;;;;;6338881;28;20027;-91
2023/10/11 19:13:29;;;;;;;;;;;;;;;;;;6332328;27;20381;-91
2023/10/11 19:16:30;;;;;;;;;;;;;;;;;;6331780;28;19919;-92
2023/10/11 19:19:30;;;;;;;;;;;;;;;;;;6325000;28;19966;-90
2023/10/11 19:22:31;;;;;;;;;;;;;;;;;;6322472;28;19961;-91
2023/10/11 19:25:33;;;;;;;;;;;;;;;;;;6327248;27;19912;-90
2023/10/11 19:28:33;;;;;;;;;;;;;;;;;;6326474;28;20368;-84
2023/10/11 19:31:36;;;;;;;;;;;;;;;;;;6315785;28;19961;-84
2023/10/11 19:34:37;;;;;;;;;;;;;;;;;;6319809;28;19916;-84
2023/10/11 19:37:38;;;;;;;;;;;;;;;;;;6307473;28;19916;-84
2023/10/11 19:40:38;;;;;;;;;;;;;;;;;;6311424;28;19916;-84
2023/10/11 19:43:38;;;;;;;;;;;;;;;;;;6317858;28;20014;-84
2023/10/11 19:46:39;;;;;;;;;;;;;;;;;;6322219;28;19911;-91
2023/10/11 19:49:39;;;;;;;;;;;;;;;;;;6308931;28;20014;-92
2023/10/11 19:52:39;;;;;;;;;;;;;;;;;;6335979;27;19912;-92
2023/10/11 19:55:39;;;;;;;;;;;;;;;;;;6305268;28;20369;-91
2023/10/11 19:58:40;;;;;;;;;;;;;;;;;;6318374;28;19927;-91
2023/10/11 20:01:41;;;;;;;;;;;;;;;;;;6314916;28;19916;-92
2023/10/11 20:04:43;;;;;;;;;;;;;;;;;;6310765;28;20358;-92
2023/10/11 20:07:43;;;;;;;;;;;;;;;;;;6306387;28;19916;-92
2023/10/11 20:10:48;;;;;;;;;;;;;;;;;;6328834;28;20408;-92
2023/10/11 20:13:48;;;;;;;;;;;;;;;;;;6334915;28;19944;-92
2023/10/11 20:16:48;;;;;;;;;;;;;;;;;;6332653;28;19912;-91
2023/10/11 20:19:48;;;;;;;;;;;;;;;;;;6316922;28;20002;-92
2023/10/11 20:22:49;;;;;;;;;;;;;;;;;;6332806;28;20257;-92
2023/10/11 20:25:49;;;;;;;;;;;;;;;;;;6326102;27;19912;-92
2023/10/11 20:28:49;;;;;;;;;;;;;;;;;;6323183;28;20003;-92
2023/10/11 20:31:49;;;;;;;;;;;;;;;;;;6311559;28;20026;-92
2023/10/11 20:34:49;;;;;;;;;;;;;;;;;;6320768;28;19961;-92
2023/10/11 20:37:49;;;;;;;;;;;;;;;;;;6341023;28;20002;-85
2023/10/11 20:40:52;;;;;;;;;;;;;;;;;;6317631;28;19912;-85
2023/10/11 20:43:52;;;;;;;;;;;;;;;;;;6339861;28;19974;-85
2023/10/11 20:46:52;;;;;;;;;;;;;;;;;;6314938;28;19912;-85
2023/10/11 20:49:54;;;;;;;;;;;;;;;;;;6338123;28;19919;-85
2023/10/11 20:52:54;;;;;;;;;;;;;;;;;;6348268;27;19918;-85
2023/10/11 20:55:58;;;;;;;;;;;;;;;;;;6339106;28;19919;-85
2023/10/11 20:59:06;;;;;;;;;;;;;;;;;;6339864;28;20389;-85
2023/10/11 21:02:08;;;;;;;;;;;;;;;;;;6336635;27;19967;-85
2023/10/11 21:05:09;;;;;;;;;;;;;;;;;;6338234;28;19953;-85
2023/10/11 21:08:12;;;;;;;;;;;;;;;;;;6336209;28;20242;-84